sensor_id;sensor_type;location;lat;lon;timestamp;P1;durP1;ratioP1;P2;durP2;ratioP2
7330;SDS011;3706;49.198;7.064;2023-05-10T00:01:55;3.20;;;1.97;;
7330;SDS011;3706;49.198;7.064;2023-05-10T00:04:21;2.87;;;2.10;;
7330;SDS011;3706;49.198;7.064;2023-05-10T00:06:52;3.67;;;2.10;;
7330;SDS011;3706;49.198;7.064;2023-05-10T00:09:20;3.07;;;2.60;;
7330;SDS011;3706;49.198;7.064;2023-05-10T00:11:47;3.87;;;2.40;;
7330;SDS011;3706;49.198;7.064;2023-05-10T00:14:14;3.63;;;2.80;;
7330;SDS011;3706;49.198;7.064;2023-05-10T00:16:41;4.57;;;2.17;;
7330;SDS011;3706;49.198;7.064;2023-05-10T00:19:07;3.23;;;2.90;;
7330;SDS011;3706;49.198;7.064;2023-05-10T00:21:34;4.77;;;3.00;;
7330;SDS011;3706;49.198;7.064;2023-05-10T00:24:01;2.60;;;2.40;;
7330;SDS011;3706;49.198;7.064;2023-05-10T00:26:30;3.10;;;2.80;;
7330;SDS011;3706;49.198;7.064;2023-05-10T00:28:57;3.30;;;3.00;;
7330;SDS011;3706;49.198;7.064;2023-05-10T00:31:24;2.50;;;2.30;;
7330;SDS011;3706;49.198;7.064;2023-05-10T00:33:51;3.00;;;2.70;;
7330;SDS011;3706;49.198;7.064;2023-05-10T00:36:18;3.23;;;2.93;;
7330;SDS011;3706;49.198;7.064;2023-05-10T00:38:45;2.83;;;2.57;;
7330;SDS011;3706;49.198;7.064;2023-05-10T00:41:12;3.60;;;3.30;;
7330;SDS011;3706;49.198;7.064;2023-05-10T00:43:41;5.33;;;3.43;;
7330;SDS011;3706;49.198;7.064;2023-05-10T00:46:08;4.87;;;3.20;;
7330;SDS011;3706;49.198;7.064;2023-05-10T00:48:35;8.73;;;3.60;;
7330;SDS011;3706;49.198;7.064;2023-05-10T00:51:02;4.27;;;3.30;;
7330;SDS011;3706;49.198;7.064;2023-05-10T00:53:30;3.87;;;3.50;;
7330;SDS011;3706;49.198;7.064;2023-05-10T00:55:57;5.00;;;2.93;;
7330;SDS011;3706;49.198;7.064;2023-05-10T00:58:24;4.30;;;3.90;;
7330;SDS011;3706;49.198;7.064;2023-05-10T01:00:54;3.87;;;3.47;;
7330;SDS011;3706;49.198;7.064;2023-05-10T01:03:22;4.37;;;3.40;;
7330;SDS011;3706;49.198;7.064;2023-05-10T01:05:49;4.30;;;3.40;;
7330;SDS011;3706;49.198;7.064;2023-05-10T01:08:16;3.97;;;3.57;;
7330;SDS011;3706;49.198;7.064;2023-05-10T01:10:43;4.17;;;3.37;;
7330;SDS011;3706;49.198;7.064;2023-05-10T01:13:11;3.53;;;3.00;;
7330;SDS011;3706;49.198;7.064;2023-05-10T01:15:39;3.87;;;3.47;;
7330;SDS011;3706;49.198;7.064;2023-05-10T01:18:08;3.83;;;3.40;;
7330;SDS011;3706;49.198;7.064;2023-05-10T01:20:37;5.97;;;3.50;;
7330;SDS011;3706;49.198;7.064;2023-05-10T01:23:21;6.23;;;3.67;;
7330;SDS011;3706;49.198;7.064;2023-05-10T01:32:15;4.67;;;3.43;;
7330;SDS011;3706;49.198;7.064;2023-05-10T01:34:48;4.67;;;3.40;;
7330;SDS011;3706;49.198;7.064;2023-05-10T01:37:25;5.67;;;3.93;;
7330;SDS011;3706;49.198;7.064;2023-05-10T01:39:58;7.60;;;3.67;;
7330;SDS011;3706;49.198;7.064;2023-05-10T01:42:31;6.70;;;3.80;;
7330;SDS011;3706;49.198;7.064;2023-05-10T01:45:06;4.53;;;3.30;;
7330;SDS011;3706;49.198;7.064;2023-05-10T01:47:42;4.33;;;3.93;;
7330;SDS011;3706;49.198;7.064;2023-05-10T01:50:13;4.73;;;3.80;;
7330;SDS011;3706;49.198;7.064;2023-05-10T01:52:44;3.93;;;3.57;;
7330;SDS011;3706;49.198;7.064;2023-05-10T01:55:17;4.40;;;3.97;;
7330;SDS011;3706;49.198;7.064;2023-05-10T01:57:46;3.90;;;3.47;;
7330;SDS011;3706;49.198;7.064;2023-05-10T02:00:16;5.17;;;4.13;;
7330;SDS011;3706;49.198;7.064;2023-05-10T02:02:47;5.77;;;4.00;;
7330;SDS011;3706;49.198;7.064;2023-05-10T02:05:16;5.50;;;4.77;;
7330;SDS011;3706;49.198;7.064;2023-05-10T02:07:44;4.37;;;3.97;;
7330;SDS011;3706;49.198;7.064;2023-05-10T02:10:12;5.73;;;4.47;;
7330;SDS011;3706;49.198;7.064;2023-05-10T02:12:41;4.93;;;4.43;;
7330;SDS011;3706;49.198;7.064;2023-05-10T02:15:10;9.73;;;5.03;;
7330;SDS011;3706;49.198;7.064;2023-05-10T02:17:38;4.20;;;3.80;;
7330;SDS011;3706;49.198;7.064;2023-05-10T02:20:08;6.77;;;5.13;;
7330;SDS011;3706;49.198;7.064;2023-05-10T02:22:36;4.27;;;3.87;;
7330;SDS011;3706;49.198;7.064;2023-05-10T02:25:04;4.77;;;4.27;;
7330;SDS011;3706;49.198;7.064;2023-05-10T02:27:34;5.23;;;4.30;;
7330;SDS011;3706;49.198;7.064;2023-05-10T02:30:03;6.30;;;5.80;;
7330;SDS011;3706;49.198;7.064;2023-05-10T02:32:31;5.40;;;4.90;;
7330;SDS011;3706;49.198;7.064;2023-05-10T02:35:00;5.80;;;5.23;;
7330;SDS011;3706;49.198;7.064;2023-05-10T02:37:30;4.33;;;3.93;;
7330;SDS011;3706;49.198;7.064;2023-05-10T02:39:57;5.87;;;5.27;;
7330;SDS011;3706;49.198;7.064;2023-05-10T02:42:26;4.97;;;4.47;;
7330;SDS011;3706;49.198;7.064;2023-05-10T02:44:54;4.20;;;3.23;;
7330;SDS011;3706;49.198;7.064;2023-05-10T02:47:25;4.67;;;4.17;;
7330;SDS011;3706;49.198;7.064;2023-05-10T02:49:53;6.23;;;4.73;;
7330;SDS011;3706;49.198;7.064;2023-05-10T02:52:21;5.87;;;5.27;;
7330;SDS011;3706;49.198;7.064;2023-05-10T02:54:54;6.50;;;5.27;;
7330;SDS011;3706;49.198;7.064;2023-05-10T02:57:24;8.13;;;4.90;;
7330;SDS011;3706;49.198;7.064;2023-05-10T02:59:53;6.27;;;5.67;;
7330;SDS011;3706;49.198;7.064;2023-05-10T03:02:21;3.80;;;3.50;;
7330;SDS011;3706;49.198;7.064;2023-05-10T03:04:48;6.47;;;5.87;;
7330;SDS011;3706;49.198;7.064;2023-05-10T03:07:15;8.57;;;6.10;;
7330;SDS011;3706;49.198;7.064;2023-05-10T03:09:44;7.20;;;5.50;;
7330;SDS011;3706;49.198;7.064;2023-05-10T03:12:14;6.10;;;5.50;;
7330;SDS011;3706;49.198;7.064;2023-05-10T03:14:52;5.97;;;4.87;;
7330;SDS011;3706;49.198;7.064;2023-05-10T03:17:25;7.80;;;5.37;;
7330;SDS011;3706;49.198;7.064;2023-05-10T03:19:56;6.87;;;5.77;;
7330;SDS011;3706;49.198;7.064;2023-05-10T03:22:25;6.07;;;5.47;;
7330;SDS011;3706;49.198;7.064;2023-05-10T03:24:55;5.57;;;5.07;;
7330;SDS011;3706;49.198;7.064;2023-05-10T03:27:25;5.77;;;5.23;;
7330;SDS011;3706;49.198;7.064;2023-05-10T03:29:53;6.50;;;5.90;;
7330;SDS011;3706;49.198;7.064;2023-05-10T03:32:21;5.77;;;5.20;;
7330;SDS011;3706;49.198;7.064;2023-05-10T03:34:49;6.10;;;5.20;;
7330;SDS011;3706;49.198;7.064;2023-05-10T03:37:16;7.33;;;5.60;;
7330;SDS011;3706;49.198;7.064;2023-05-10T03:39:42;5.73;;;4.33;;
7330;SDS011;3706;49.198;7.064;2023-05-10T03:42:10;6.23;;;5.63;;
7330;SDS011;3706;49.198;7.064;2023-05-10T03:44:39;6.77;;;5.70;;
7330;SDS011;3706;49.198;7.064;2023-05-10T03:47:06;6.27;;;5.67;;
7330;SDS011;3706;49.198;7.064;2023-05-10T03:49:32;5.80;;;5.20;;
7330;SDS011;3706;49.198;7.064;2023-05-10T03:51:59;8.17;;;6.03;;
7330;SDS011;3706;49.198;7.064;2023-05-10T03:54:26;6.27;;;5.67;;
7330;SDS011;3706;49.198;7.064;2023-05-10T03:56:53;6.63;;;6.00;;
7330;SDS011;3706;49.198;7.064;2023-05-10T03:59:20;6.37;;;5.77;;
7330;SDS011;3706;49.198;7.064;2023-05-10T04:01:48;6.23;;;5.63;;
7330;SDS011;3706;49.198;7.064;2023-05-10T04:04:15;5.87;;;5.30;;
7330;SDS011;3706;49.198;7.064;2023-05-10T04:06:43;5.77;;;4.70;;
7330;SDS011;3706;49.198;7.064;2023-05-10T04:09:10;4.70;;;4.30;;
7330;SDS011;3706;49.198;7.064;2023-05-10T04:11:37;6.03;;;4.50;;
7330;SDS011;3706;49.198;7.064;2023-05-10T04:14:04;5.60;;;4.27;;
7330;SDS011;3706;49.198;7.064;2023-05-10T04:16:31;5.57;;;4.00;;
7330;SDS011;3706;49.198;7.064;2023-05-10T04:18:59;5.07;;;3.63;;
7330;SDS011;3706;49.198;7.064;2023-05-10T04:21:26;5.03;;;4.33;;
7330;SDS011;3706;49.198;7.064;2023-05-10T04:23:53;3.20;;;2.87;;
7330;SDS011;3706;49.198;7.064;2023-05-10T04:26:20;5.70;;;3.70;;
7330;SDS011;3706;49.198;7.064;2023-05-10T04:28:47;5.03;;;3.63;;
7330;SDS011;3706;49.198;7.064;2023-05-10T04:31:14;7.73;;;4.23;;
7330;SDS011;3706;49.198;7.064;2023-05-10T04:33:41;4.40;;;4.00;;
7330;SDS011;3706;49.198;7.064;2023-05-10T04:36:09;4.30;;;3.90;;
7330;SDS011;3706;49.198;7.064;2023-05-10T04:38:36;4.63;;;3.60;;
7330;SDS011;3706;49.198;7.064;2023-05-10T04:41:03;4.27;;;3.87;;
7330;SDS011;3706;49.198;7.064;2023-05-10T04:43:31;4.63;;;3.90;;
7330;SDS011;3706;49.198;7.064;2023-05-10T04:45:58;4.20;;;3.47;;
7330;SDS011;3706;49.198;7.064;2023-05-10T04:48:25;4.73;;;3.90;;
7330;SDS011;3706;49.198;7.064;2023-05-10T04:50:52;4.80;;;3.87;;
7330;SDS011;3706;49.198;7.064;2023-05-10T04:53:21;5.63;;;3.50;;
7330;SDS011;3706;49.198;7.064;2023-05-10T04:55:48;3.67;;;3.37;;
7330;SDS011;3706;49.198;7.064;2023-05-10T04:58:15;6.93;;;3.43;;
7330;SDS011;3706;49.198;7.064;2023-05-10T05:00:42;3.90;;;3.40;;
7330;SDS011;3706;49.198;7.064;2023-05-10T05:03:09;3.60;;;3.30;;
7330;SDS011;3706;49.198;7.064;2023-05-10T05:05:36;5.93;;;3.03;;
7330;SDS011;3706;49.198;7.064;2023-05-10T05:08:03;4.33;;;3.23;;
7330;SDS011;3706;49.198;7.064;2023-05-10T05:10:31;3.70;;;3.40;;
7330;SDS011;3706;49.198;7.064;2023-05-10T05:12:58;4.57;;;3.30;;
7330;SDS011;3706;49.198;7.064;2023-05-10T05:15:25;5.03;;;3.10;;
7330;SDS011;3706;49.198;7.064;2023-05-10T05:17:52;3.17;;;2.87;;
7330;SDS011;3706;49.198;7.064;2023-05-10T05:20:19;3.53;;;3.23;;
7330;SDS011;3706;49.198;7.064;2023-05-10T05:22:46;5.63;;;2.90;;
7330;SDS011;3706;49.198;7.064;2023-05-10T05:25:13;5.33;;;2.83;;
7330;SDS011;3706;49.198;7.064;2023-05-10T05:27:41;3.37;;;2.67;;
7330;SDS011;3706;49.198;7.064;2023-05-10T05:30:09;3.20;;;2.80;;
7330;SDS011;3706;49.198;7.064;2023-05-10T05:32:36;3.97;;;2.60;;
7330;SDS011;3706;49.198;7.064;2023-05-10T05:35:03;5.30;;;2.83;;
7330;SDS011;3706;49.198;7.064;2023-05-10T05:37:31;3.47;;;2.50;;
7330;SDS011;3706;49.198;7.064;2023-05-10T05:39:58;2.77;;;2.40;;
7330;SDS011;3706;49.198;7.064;2023-05-10T05:42:26;2.70;;;2.20;;
7330;SDS011;3706;49.198;7.064;2023-05-10T05:44:55;2.87;;;2.23;;
7330;SDS011;3706;49.198;7.064;2023-05-10T05:47:22;4.07;;;2.90;;
7330;SDS011;3706;49.198;7.064;2023-05-10T05:49:49;4.60;;;2.33;;
7330;SDS011;3706;49.198;7.064;2023-05-10T05:52:16;3.23;;;2.20;;
7330;SDS011;3706;49.198;7.064;2023-05-10T05:54:43;2.20;;;2.00;;
7330;SDS011;3706;49.198;7.064;2023-05-10T05:57:10;7.93;;;2.20;;
7330;SDS011;3706;49.198;7.064;2023-05-10T05:59:37;2.83;;;1.90;;
7330;SDS011;3706;49.198;7.064;2023-05-10T06:02:08;2.57;;;1.50;;
7330;SDS011;3706;49.198;7.064;2023-05-10T06:04:35;2.20;;;1.50;;
7330;SDS011;3706;49.198;7.064;2023-05-10T06:07:02;1.63;;;1.40;;
7330;SDS011;3706;49.198;7.064;2023-05-10T06:09:29;6.90;;;1.60;;
7330;SDS011;3706;49.198;7.064;2023-05-10T06:11:56;1.67;;;1.27;;
7330;SDS011;3706;49.198;7.064;2023-05-10T06:14:23;2.23;;;1.10;;
7330;SDS011;3706;49.198;7.064;2023-05-10T06:16:50;3.17;;;1.40;;
7330;SDS011;3706;49.198;7.064;2023-05-10T06:19:18;4.30;;;1.30;;
7330;SDS011;3706;49.198;7.064;2023-05-10T06:27:51;1.97;;;1.17;;
7330;SDS011;3706;49.198;7.064;2023-05-10T06:30:22;3.20;;;1.27;;
7330;SDS011;3706;49.198;7.064;2023-05-10T06:32:52;4.47;;;1.33;;
7330;SDS011;3706;49.198;7.064;2023-05-10T06:35:21;2.60;;;1.07;;
7330;SDS011;3706;49.198;7.064;2023-05-10T06:37:48;1.27;;;1.10;;
7330;SDS011;3706;49.198;7.064;2023-05-10T06:40:15;1.20;;;1.10;;
7330;SDS011;3706;49.198;7.064;2023-05-10T06:42:42;3.00;;;1.43;;
7330;SDS011;3706;49.198;7.064;2023-05-10T06:45:10;3.90;;;1.10;;
7330;SDS011;3706;49.198;7.064;2023-05-10T06:47:37;2.33;;;1.20;;
7330;SDS011;3706;49.198;7.064;2023-05-10T06:50:05;3.63;;;1.30;;
7330;SDS011;3706;49.198;7.064;2023-05-10T06:52:34;1.27;;;1.17;;
7330;SDS011;3706;49.198;7.064;2023-05-10T06:55:01;1.33;;;1.23;;
7330;SDS011;3706;49.198;7.064;2023-05-10T06:57:29;2.70;;;1.53;;
7330;SDS011;3706;49.198;7.064;2023-05-10T06:59:56;3.07;;;1.30;;
7330;SDS011;3706;49.198;7.064;2023-05-10T07:02:23;2.43;;;1.40;;
7330;SDS011;3706;49.198;7.064;2023-05-10T07:04:50;3.00;;;1.10;;
7330;SDS011;3706;49.198;7.064;2023-05-10T07:07:17;2.03;;;1.00;;
7330;SDS011;3706;49.198;7.064;2023-05-10T07:09:46;1.13;;;0.90;;
7330;SDS011;3706;49.198;7.064;2023-05-10T07:12:12;1.77;;;1.10;;
7330;SDS011;3706;49.198;7.064;2023-05-10T07:14:39;1.13;;;0.70;;
7330;SDS011;3706;49.198;7.064;2023-05-10T07:17:06;2.80;;;1.00;;
7330;SDS011;3706;49.198;7.064;2023-05-10T07:19:33;1.47;;;0.90;;
7330;SDS011;3706;49.198;7.064;2023-05-10T07:22:01;1.70;;;0.80;;
7330;SDS011;3706;49.198;7.064;2023-05-10T07:24:28;1.47;;;1.00;;
7330;SDS011;3706;49.198;7.064;2023-05-10T07:26:56;1.37;;;1.03;;
7330;SDS011;3706;49.198;7.064;2023-05-10T07:29:23;1.53;;;0.80;;
7330;SDS011;3706;49.198;7.064;2023-05-10T07:31:50;1.23;;;0.90;;
7330;SDS011;3706;49.198;7.064;2023-05-10T07:34:17;0.60;;;0.53;;
7330;SDS011;3706;49.198;7.064;2023-05-10T07:36:44;1.20;;;0.90;;
7330;SDS011;3706;49.198;7.064;2023-05-10T07:39:10;1.77;;;0.90;;
7330;SDS011;3706;49.198;7.064;2023-05-10T07:41:37;3.60;;;1.00;;
7330;SDS011;3706;49.198;7.064;2023-05-10T07:44:06;1.47;;;0.80;;
7330;SDS011;3706;49.198;7.064;2023-05-10T07:46:33;1.20;;;0.90;;
7330;SDS011;3706;49.198;7.064;2023-05-10T07:49:00;0.87;;;0.87;;
7330;SDS011;3706;49.198;7.064;2023-05-10T07:51:32;2.27;;;1.10;;
7330;SDS011;3706;49.198;7.064;2023-05-10T07:53:59;1.80;;;0.90;;
7330;SDS011;3706;49.198;7.064;2023-05-10T07:56:28;0.93;;;0.73;;
7330;SDS011;3706;49.198;7.064;2023-05-10T07:58:57;3.97;;;0.80;;
7330;SDS011;3706;49.198;7.064;2023-05-10T08:01:26;1.47;;;0.83;;
7330;SDS011;3706;49.198;7.064;2023-05-10T08:03:55;2.90;;;1.00;;
7330;SDS011;3706;49.198;7.064;2023-05-10T08:06:22;2.30;;;0.80;;
7330;SDS011;3706;49.198;7.064;2023-05-10T08:08:51;4.73;;;1.00;;
7330;SDS011;3706;49.198;7.064;2023-05-10T08:11:19;1.20;;;1.10;;
7330;SDS011;3706;49.198;7.064;2023-05-10T08:13:46;2.77;;;1.27;;
7330;SDS011;3706;49.198;7.064;2023-05-10T08:16:14;3.37;;;1.30;;
7330;SDS011;3706;49.198;7.064;2023-05-10T08:18:44;3.83;;;1.27;;
7330;SDS011;3706;49.198;7.064;2023-05-10T08:21:11;2.27;;;1.30;;
7330;SDS011;3706;49.198;7.064;2023-05-10T08:23:39;3.80;;;1.27;;
7330;SDS011;3706;49.198;7.064;2023-05-10T08:26:06;3.67;;;1.53;;
7330;SDS011;3706;49.198;7.064;2023-05-10T08:28:33;3.27;;;1.50;;
7330;SDS011;3706;49.198;7.064;2023-05-10T08:31:00;6.40;;;1.40;;
7330;SDS011;3706;49.198;7.064;2023-05-10T08:33:27;2.47;;;1.50;;
7330;SDS011;3706;49.198;7.064;2023-05-10T08:35:55;2.47;;;1.40;;
7330;SDS011;3706;49.198;7.064;2023-05-10T08:38:22;3.47;;;1.93;;
7330;SDS011;3706;49.198;7.064;2023-05-10T08:40:50;3.93;;;1.30;;
7330;SDS011;3706;49.198;7.064;2023-05-10T08:43:21;3.33;;;1.47;;
7330;SDS011;3706;49.198;7.064;2023-05-10T08:45:52;3.03;;;1.50;;
7330;SDS011;3706;49.198;7.064;2023-05-10T08:48:20;3.30;;;1.50;;
7330;SDS011;3706;49.198;7.064;2023-05-10T08:50:49;3.13;;;1.50;;
7330;SDS011;3706;49.198;7.064;2023-05-10T08:53:21;4.10;;;0.93;;
7330;SDS011;3706;49.198;7.064;2023-05-10T08:55:51;5.20;;;1.10;;
7330;SDS011;3706;49.198;7.064;2023-05-10T08:58:19;1.50;;;1.20;;
7330;SDS011;3706;49.198;7.064;2023-05-10T09:00:46;2.97;;;1.40;;
7330;SDS011;3706;49.198;7.064;2023-05-10T09:03:15;3.03;;;1.10;;
7330;SDS011;3706;49.198;7.064;2023-05-10T09:05:43;1.10;;;0.80;;
7330;SDS011;3706;49.198;7.064;2023-05-10T09:08:11;3.33;;;1.27;;
7330;SDS011;3706;49.198;7.064;2023-05-10T09:10:40;3.37;;;1.37;;
7330;SDS011;3706;49.198;7.064;2023-05-10T09:13:09;2.30;;;1.00;;
7330;SDS011;3706;49.198;7.064;2023-05-10T09:15:37;1.80;;;1.20;;
7330;SDS011;3706;49.198;7.064;2023-05-10T09:18:04;8.53;;;1.47;;
7330;SDS011;3706;49.198;7.064;2023-05-10T09:20:31;3.37;;;1.17;;
7330;SDS011;3706;49.198;7.064;2023-05-10T09:22:58;2.43;;;1.10;;
7330;SDS011;3706;49.198;7.064;2023-05-10T09:25:25;1.83;;;1.00;;
7330;SDS011;3706;49.198;7.064;2023-05-10T09:27:53;3.13;;;0.90;;
7330;SDS011;3706;49.198;7.064;2023-05-10T09:30:23;2.90;;;1.20;;
7330;SDS011;3706;49.198;7.064;2023-05-10T09:32:51;2.53;;;1.03;;
7330;SDS011;3706;49.198;7.064;2023-05-10T09:35:19;2.83;;;1.10;;
7330;SDS011;3706;49.198;7.064;2023-05-10T09:37:48;2.50;;;0.90;;
7330;SDS011;3706;49.198;7.064;2023-05-10T09:40:16;4.10;;;0.90;;
7330;SDS011;3706;49.198;7.064;2023-05-10T09:42:50;5.70;;;1.20;;
7330;SDS011;3706;49.198;7.064;2023-05-10T09:45:20;2.00;;;0.90;;
7330;SDS011;3706;49.198;7.064;2023-05-10T09:47:48;1.80;;;1.00;;
7330;SDS011;3706;49.198;7.064;2023-05-10T09:50:15;2.30;;;0.90;;
7330;SDS011;3706;49.198;7.064;2023-05-10T09:52:45;2.33;;;1.10;;
7330;SDS011;3706;49.198;7.064;2023-05-10T09:55:13;2.83;;;0.90;;
7330;SDS011;3706;49.198;7.064;2023-05-10T09:57:41;2.13;;;1.10;;
7330;SDS011;3706;49.198;7.064;2023-05-10T10:00:09;2.07;;;0.70;;
7330;SDS011;3706;49.198;7.064;2023-05-10T10:02:42;2.83;;;0.73;;
7330;SDS011;3706;49.198;7.064;2023-05-10T10:05:11;1.37;;;0.80;;
7330;SDS011;3706;49.198;7.064;2023-05-10T10:07:38;1.40;;;0.90;;
7330;SDS011;3706;49.198;7.064;2023-05-10T10:10:05;1.43;;;0.80;;
7330;SDS011;3706;49.198;7.064;2023-05-10T10:12:36;2.33;;;0.83;;
7330;SDS011;3706;49.198;7.064;2023-05-10T10:15:03;1.43;;;0.80;;
7330;SDS011;3706;49.198;7.064;2023-05-10T10:17:33;1.27;;;1.00;;
7330;SDS011;3706;49.198;7.064;2023-05-10T10:20:03;1.93;;;0.60;;
7330;SDS011;3706;49.198;7.064;2023-05-10T10:22:31;3.23;;;0.90;;
7330;SDS011;3706;49.198;7.064;2023-05-10T10:24:58;3.40;;;0.90;;
7330;SDS011;3706;49.198;7.064;2023-05-10T10:27:26;2.63;;;0.70;;
7330;SDS011;3706;49.198;7.064;2023-05-10T10:30:11;1.80;;;0.93;;
7330;SDS011;3706;49.198;7.064;2023-05-10T10:32:53;2.00;;;0.83;;
7330;SDS011;3706;49.198;7.064;2023-05-10T10:35:42;1.70;;;0.63;;
7330;SDS011;3706;49.198;7.064;2023-05-10T10:38:12;2.30;;;0.93;;
7330;SDS011;3706;49.198;7.064;2023-05-10T10:40:39;2.43;;;0.80;;
7330;SDS011;3706;49.198;7.064;2023-05-10T10:43:20;1.47;;;0.83;;
7330;SDS011;3706;49.198;7.064;2023-05-10T10:45:56;1.97;;;0.60;;
7330;SDS011;3706;49.198;7.064;2023-05-10T10:48:37;1.87;;;0.73;;
7330;SDS011;3706;49.198;7.064;2023-05-10T10:51:05;1.80;;;0.73;;
7330;SDS011;3706;49.198;7.064;2023-05-10T10:53:32;1.13;;;0.57;;
7330;SDS011;3706;49.198;7.064;2023-05-10T10:56:02;1.40;;;0.50;;
7330;SDS011;3706;49.198;7.064;2023-05-10T10:58:34;1.00;;;0.80;;
7330;SDS011;3706;49.198;7.064;2023-05-10T11:01:11;1.60;;;0.97;;
7330;SDS011;3706;49.198;7.064;2023-05-10T11:03:54;2.67;;;0.70;;
7330;SDS011;3706;49.198;7.064;2023-05-10T11:06:44;1.03;;;0.70;;
7330;SDS011;3706;49.198;7.064;2023-05-10T11:09:11;2.33;;;0.63;;
7330;SDS011;3706;49.198;7.064;2023-05-10T11:11:48;1.40;;;0.77;;
7330;SDS011;3706;49.198;7.064;2023-05-10T11:14:19;0.60;;;0.60;;
7330;SDS011;3706;49.198;7.064;2023-05-10T11:16:47;0.87;;;0.70;;
7330;SDS011;3706;49.198;7.064;2023-05-10T11:19:16;2.50;;;0.90;;
7330;SDS011;3706;49.198;7.064;2023-05-10T11:21:44;2.07;;;0.80;;
7330;SDS011;3706;49.198;7.064;2023-05-10T11:24:14;1.97;;;0.93;;
7330;SDS011;3706;49.198;7.064;2023-05-10T11:26:42;5.30;;;0.87;;
7330;SDS011;3706;49.198;7.064;2023-05-10T11:29:09;1.20;;;0.70;;
7330;SDS011;3706;49.198;7.064;2023-05-10T11:31:41;1.70;;;0.90;;
7330;SDS011;3706;49.198;7.064;2023-05-10T11:34:08;2.57;;;1.00;;
7330;SDS011;3706;49.198;7.064;2023-05-10T11:36:37;1.60;;;0.57;;
7330;SDS011;3706;49.198;7.064;2023-05-10T11:39:04;1.73;;;1.17;;
7330;SDS011;3706;49.198;7.064;2023-05-10T11:41:31;0.73;;;0.63;;
7330;SDS011;3706;49.198;7.064;2023-05-10T11:43:58;3.10;;;0.73;;
7330;SDS011;3706;49.198;7.064;2023-05-10T11:46:26;1.47;;;0.67;;
7330;SDS011;3706;49.198;7.064;2023-05-10T11:48:55;1.77;;;0.80;;
7330;SDS011;3706;49.198;7.064;2023-05-10T11:51:25;3.13;;;0.90;;
7330;SDS011;3706;49.198;7.064;2023-05-10T11:53:56;2.43;;;0.90;;
7330;SDS011;3706;49.198;7.064;2023-05-10T11:56:23;1.33;;;0.57;;
7330;SDS011;3706;49.198;7.064;2023-05-10T11:58:52;1.17;;;0.63;;
7330;SDS011;3706;49.198;7.064;2023-05-10T12:01:21;1.37;;;0.67;;
7330;SDS011;3706;49.198;7.064;2023-05-10T12:03:51;1.30;;;0.90;;
7330;SDS011;3706;49.198;7.064;2023-05-10T12:06:20;1.40;;;0.50;;
7330;SDS011;3706;49.198;7.064;2023-05-10T12:08:48;1.43;;;0.47;;
7330;SDS011;3706;49.198;7.064;2023-05-10T12:11:18;0.37;;;0.37;;
7330;SDS011;3706;49.198;7.064;2023-05-10T12:13:46;1.60;;;0.80;;
7330;SDS011;3706;49.198;7.064;2023-05-10T12:16:15;0.67;;;0.60;;
7330;SDS011;3706;49.198;7.064;2023-05-10T12:18:43;2.97;;;0.83;;
7330;SDS011;3706;49.198;7.064;2023-05-10T12:21:10;2.80;;;0.90;;
7330;SDS011;3706;49.198;7.064;2023-05-10T12:23:38;3.20;;;0.97;;
7330;SDS011;3706;49.198;7.064;2023-05-10T12:26:06;2.73;;;0.80;;
7330;SDS011;3706;49.198;7.064;2023-05-10T12:28:36;1.10;;;0.67;;
7330;SDS011;3706;49.198;7.064;2023-05-10T12:31:05;1.70;;;0.87;;
7330;SDS011;3706;49.198;7.064;2023-05-10T12:33:35;1.00;;;0.57;;
7330;SDS011;3706;49.198;7.064;2023-05-10T12:36:04;1.60;;;0.97;;
7330;SDS011;3706;49.198;7.064;2023-05-10T12:38:33;1.70;;;0.70;;
7330;SDS011;3706;49.198;7.064;2023-05-10T12:41:02;1.13;;;0.73;;
7330;SDS011;3706;49.198;7.064;2023-05-10T12:43:48;1.33;;;0.60;;
7330;SDS011;3706;49.198;7.064;2023-05-10T12:46:46;3.47;;;0.80;;
7330;SDS011;3706;49.198;7.064;2023-05-10T12:49:36;1.37;;;0.97;;
7330;SDS011;3706;49.198;7.064;2023-05-10T12:52:20;1.43;;;0.83;;
7330;SDS011;3706;49.198;7.064;2023-05-10T12:54:49;0.93;;;0.60;;
7330;SDS011;3706;49.198;7.064;2023-05-10T12:57:16;1.37;;;0.63;;
7330;SDS011;3706;49.198;7.064;2023-05-10T12:59:44;1.20;;;0.57;;
7330;SDS011;3706;49.198;7.064;2023-05-10T13:02:11;2.37;;;0.70;;
7330;SDS011;3706;49.198;7.064;2023-05-10T13:04:39;0.93;;;0.63;;
7330;SDS011;3706;49.198;7.064;2023-05-10T13:07:07;2.30;;;0.90;;
7330;SDS011;3706;49.198;7.064;2023-05-10T13:09:34;1.80;;;0.80;;
7330;SDS011;3706;49.198;7.064;2023-05-10T13:12:01;0.80;;;0.73;;
7330;SDS011;3706;49.198;7.064;2023-05-10T13:14:29;2.80;;;1.07;;
7330;SDS011;3706;49.198;7.064;2023-05-10T13:16:57;1.33;;;0.70;;
7330;SDS011;3706;49.198;7.064;2023-05-10T13:19:25;1.30;;;0.83;;
7330;SDS011;3706;49.198;7.064;2023-05-10T13:21:52;0.70;;;0.70;;
7330;SDS011;3706;49.198;7.064;2023-05-10T13:24:24;1.60;;;0.90;;
7330;SDS011;3706;49.198;7.064;2023-05-10T13:27:00;1.90;;;0.80;;
7330;SDS011;3706;49.198;7.064;2023-05-10T13:29:27;2.70;;;0.80;;
7330;SDS011;3706;49.198;7.064;2023-05-10T13:31:54;1.23;;;1.00;;
7330;SDS011;3706;49.198;7.064;2023-05-10T13:34:22;1.93;;;0.87;;
7330;SDS011;3706;49.198;7.064;2023-05-10T13:36:49;1.07;;;0.90;;
7330;SDS011;3706;49.198;7.064;2023-05-10T13:39:17;1.93;;;0.60;;
7330;SDS011;3706;49.198;7.064;2023-05-10T13:41:48;2.43;;;0.80;;
7330;SDS011;3706;49.198;7.064;2023-05-10T13:44:15;1.47;;;0.80;;
7330;SDS011;3706;49.198;7.064;2023-05-10T13:46:41;2.50;;;0.93;;
7330;SDS011;3706;49.198;7.064;2023-05-10T13:49:08;1.87;;;0.83;;
7330;SDS011;3706;49.198;7.064;2023-05-10T13:51:37;0.87;;;0.57;;
7330;SDS011;3706;49.198;7.064;2023-05-10T13:54:04;2.50;;;1.00;;
7330;SDS011;3706;49.198;7.064;2023-05-10T13:56:31;1.63;;;0.90;;
7330;SDS011;3706;49.198;7.064;2023-05-10T13:58:58;0.80;;;0.80;;
7330;SDS011;3706;49.198;7.064;2023-05-10T14:01:25;2.60;;;1.20;;
7330;SDS011;3706;49.198;7.064;2023-05-10T14:03:52;2.70;;;1.03;;
7330;SDS011;3706;49.198;7.064;2023-05-10T14:06:19;1.47;;;1.37;;
7330;SDS011;3706;49.198;7.064;2023-05-10T14:08:48;1.47;;;0.83;;
7330;SDS011;3706;49.198;7.064;2023-05-10T14:11:14;2.37;;;0.80;;
7330;SDS011;3706;49.198;7.064;2023-05-10T14:13:42;1.00;;;0.77;;
7330;SDS011;3706;49.198;7.064;2023-05-10T14:16:09;1.50;;;0.60;;
7330;SDS011;3706;49.198;7.064;2023-05-10T14:18:36;0.77;;;0.63;;
7330;SDS011;3706;49.198;7.064;2023-05-10T14:21:04;0.90;;;0.70;;
7330;SDS011;3706;49.198;7.064;2023-05-10T14:23:31;1.07;;;0.80;;
7330;SDS011;3706;49.198;7.064;2023-05-10T14:25:59;0.93;;;0.60;;
7330;SDS011;3706;49.198;7.064;2023-05-10T14:28:29;2.80;;;0.80;;
7330;SDS011;3706;49.198;7.064;2023-05-10T14:30:56;0.77;;;0.40;;
7330;SDS011;3706;49.198;7.064;2023-05-10T14:33:23;1.00;;;0.80;;
7330;SDS011;3706;49.198;7.064;2023-05-10T14:35:50;3.00;;;0.97;;
7330;SDS011;3706;49.198;7.064;2023-05-10T14:38:17;1.47;;;0.80;;
7330;SDS011;3706;49.198;7.064;2023-05-10T14:40:44;2.77;;;0.77;;
7330;SDS011;3706;49.198;7.064;2023-05-10T14:43:12;1.20;;;0.70;;
7330;SDS011;3706;49.198;7.064;2023-05-10T14:45:39;1.33;;;0.63;;
7330;SDS011;3706;49.198;7.064;2023-05-10T14:48:06;1.77;;;0.90;;
7330;SDS011;3706;49.198;7.064;2023-05-10T14:50:36;1.27;;;0.93;;
7330;SDS011;3706;49.198;7.064;2023-05-10T14:53:03;1.03;;;0.80;;
7330;SDS011;3706;49.198;7.064;2023-05-10T14:55:30;1.40;;;0.80;;
7330;SDS011;3706;49.198;7.064;2023-05-10T14:57:57;1.07;;;0.70;;
7330;SDS011;3706;49.198;7.064;2023-05-10T15:00:26;0.80;;;0.50;;
7330;SDS011;3706;49.198;7.064;2023-05-10T15:02:53;1.23;;;0.70;;
7330;SDS011;3706;49.198;7.064;2023-05-10T15:05:21;1.80;;;0.70;;
7330;SDS011;3706;49.198;7.064;2023-05-10T15:07:49;0.43;;;0.40;;
7330;SDS011;3706;49.198;7.064;2023-05-10T15:10:15;0.63;;;0.50;;
7330;SDS011;3706;49.198;7.064;2023-05-10T15:12:42;2.00;;;1.00;;
7330;SDS011;3706;49.198;7.064;2023-05-10T15:15:10;2.03;;;0.60;;
7330;SDS011;3706;49.198;7.064;2023-05-10T15:17:39;3.80;;;0.70;;
7330;SDS011;3706;49.198;7.064;2023-05-10T15:20:07;1.90;;;0.80;;
7330;SDS011;3706;49.198;7.064;2023-05-10T15:22:34;2.13;;;1.17;;
7330;SDS011;3706;49.198;7.064;2023-05-10T15:25:01;1.10;;;0.70;;
7330;SDS011;3706;49.198;7.064;2023-05-10T15:27:29;1.63;;;0.77;;
7330;SDS011;3706;49.198;7.064;2023-05-10T15:29:55;2.13;;;0.77;;
7330;SDS011;3706;49.198;7.064;2023-05-10T15:32:24;0.80;;;0.80;;
7330;SDS011;3706;49.198;7.064;2023-05-10T15:34:52;2.70;;;1.20;;
7330;SDS011;3706;49.198;7.064;2023-05-10T15:37:19;1.77;;;1.23;;